createdAt,value
2023-05-12T00:00:13.300Z,100620.39
2023-05-12T00:02:41.329Z,100620.11
2023-05-12T00:05:09.032Z,100620.42
2023-05-12T00:07:36.600Z,100622.05
2023-05-12T00:10:03.660Z,100626.30
2023-05-12T00:12:30.598Z,100625.58
2023-05-12T00:14:57.511Z,100623.73
2023-05-12T00:17:24.409Z,100627.27
2023-05-12T00:19:51.450Z,100628.85
2023-05-12T00:22:18.309Z,100629.26
2023-05-12T00:24:45.253Z,100628.68
2023-05-12T00:27:13.849Z,100631.66
2023-05-12T00:29:40.689Z,100631.05
2023-05-12T00:32:08.367Z,100630.98
2023-05-12T00:34:35.306Z,100633.06
2023-05-12T00:37:02.256Z,100634.58
2023-05-12T00:39:29.152Z,100634.32
2023-05-12T00:41:57.398Z,100633.94
2023-05-12T00:44:24.652Z,100634.84
2023-05-12T00:46:52.002Z,100633.86
2023-05-12T00:49:19.680Z,100634.31
2023-05-12T00:51:46.569Z,100635.59
2023-05-12T00:54:13.682Z,100636.77
2023-05-12T00:56:41.485Z,100638.08
2023-05-12T00:59:09.076Z,100637.59
2023-05-12T01:01:39.461Z,100638.73
2023-05-12T01:04:06.451Z,100640.31
2023-05-12T01:06:39.931Z,100640.92
2023-05-12T01:09:08.784Z,100639.42
2023-05-12T01:11:36.282Z,100643.06
2023-05-12T01:14:03.504Z,100641.48
2023-05-12T01:16:34.037Z,100638.59
2023-05-12T01:19:01.240Z,100639.56
2023-05-12T01:21:28.253Z,100640.48
2023-05-12T01:23:58.505Z,100637.72
2023-05-12T01:26:27.792Z,100641.45
2023-05-12T01:28:54.952Z,100641.20
2023-05-12T01:31:21.911Z,100642.55
2023-05-12T01:33:48.935Z,100638.02
2023-05-12T01:36:16.396Z,100636.95
2023-05-12T01:38:43.652Z,100637.17
2023-05-12T01:41:10.546Z,100638.39
2023-05-12T01:43:37.452Z,100637.16
2023-05-12T01:46:04.460Z,100639.59
2023-05-12T01:48:31.541Z,100637.96
2023-05-12T01:51:02.194Z,100639.27
2023-05-12T01:53:29.118Z,100636.52
2023-05-12T01:55:55.991Z,100638.19
2023-05-12T01:58:27.028Z,100635.98
2023-05-12T02:00:54.190Z,100634.56
2023-05-12T02:03:22.025Z,100635.52
2023-05-12T02:05:49.025Z,100634.16
2023-05-12T02:08:15.956Z,100637.33
2023-05-12T02:10:42.825Z,100634.97
2023-05-12T02:13:09.961Z,100634.23
2023-05-12T02:15:37.018Z,100633.67
2023-05-12T02:18:04.654Z,100631.33
2023-05-12T02:20:31.652Z,100629.98
2023-05-12T02:22:58.487Z,100631.16
2023-05-12T02:25:25.362Z,100629.58
2023-05-12T02:27:52.277Z,100634.33
2023-05-12T02:30:19.526Z,100633.97
2023-05-12T02:32:47.264Z,100636.55
2023-05-12T02:35:14.569Z,100639.01
2023-05-12T02:37:41.924Z,100636.88
2023-05-12T02:40:09.688Z,100636.39
2023-05-12T02:42:38.574Z,100639.42
2023-05-12T02:45:06.498Z,100639.83
2023-05-12T02:47:33.979Z,100639.16
2023-05-12T02:50:00.995Z,100639.77
2023-05-12T02:52:28.033Z,100637.58
2023-05-12T02:54:56.319Z,100643.23
2023-05-12T02:57:23.258Z,100644.45
2023-05-12T02:59:50.210Z,100650.62
2023-05-12T03:02:17.177Z,100645.73
2023-05-12T03:04:44.115Z,100649.17
2023-05-12T03:07:11.065Z,100648.02
2023-05-12T03:09:38.013Z,100653.18
2023-05-12T03:12:05.579Z,100653.55
2023-05-12T03:14:32.535Z,100655.85
2023-05-12T03:16:59.428Z,100655.11
2023-05-12T03:19:28.069Z,100656.74
2023-05-12T03:21:55.024Z,100659.15
2023-05-12T03:24:21.868Z,100661.23
2023-05-12T03:26:48.688Z,100664.63
2023-05-12T03:29:15.671Z,100665.77
2023-05-12T03:31:43.171Z,100666.19
2023-05-12T03:34:10.368Z,100667.64
2023-05-12T03:36:37.637Z,100665.89
2023-05-12T03:39:04.795Z,100667.39
2023-05-12T03:41:32.970Z,100667.92
2023-05-12T03:44:00.176Z,100665.75
2023-05-12T03:46:27.282Z,100667.11
2023-05-12T03:48:54.239Z,100666.50
2023-05-12T03:51:21.071Z,100671.25
2023-05-12T03:53:48.047Z,100671.83
2023-05-12T03:56:15.908Z,100672.45
2023-05-12T03:58:43.373Z,100672.90
2023-05-12T04:01:10.209Z,100674.02
2023-05-12T04:03:37.420Z,100673.75
2023-05-12T04:06:04.768Z,100670.68
2023-05-12T04:08:31.613Z,100669.24
2023-05-12T04:10:59.084Z,100670.38
2023-05-12T04:13:26.093Z,100667.83
2023-05-12T04:15:55.732Z,100671.96
2023-05-12T04:18:23.081Z,100671.83
2023-05-12T04:20:50.022Z,100672.73
2023-05-12T04:23:16.984Z,100671.80
2023-05-12T04:25:43.824Z,100675.48
2023-05-12T04:28:12.057Z,100673.79
2023-05-12T04:30:40.586Z,100673.38
2023-05-12T04:33:08.228Z,100671.64
2023-05-12T04:35:35.936Z,100673.92
2023-05-12T04:38:03.640Z,100671.80
2023-05-12T04:40:32.664Z,100669.69
2023-05-12T04:43:01.281Z,100667.85
2023-05-12T04:45:28.253Z,100671.20
2023-05-12T04:47:55.126Z,100671.09
2023-05-12T04:50:22.021Z,100668.87
2023-05-12T04:52:49.067Z,100673.96
2023-05-12T04:55:16.653Z,100670.55
2023-05-12T04:57:44.322Z,100675.34
2023-05-12T05:00:12.082Z,100676.16
2023-05-12T05:02:39.515Z,100675.52
2023-05-12T05:05:07.206Z,100672.96
2023-05-12T05:07:34.461Z,100671.86
2023-05-12T05:10:01.960Z,100671.41
2023-05-12T05:12:29.182Z,100674.02
2023-05-12T05:14:56.293Z,100677.25
2023-05-12T05:17:23.164Z,100677.61
2023-05-12T05:19:58.393Z,100678.59
2023-05-12T05:22:28.655Z,100678.08
2023-05-12T05:24:56.433Z,100676.27
2023-05-12T05:27:23.329Z,100676.20
2023-05-12T05:29:51.144Z,100677.85
2023-05-12T05:32:18.411Z,100678.29
2023-05-12T05:34:45.792Z,100680.56
2023-05-12T05:37:13.123Z,100680.34
2023-05-12T05:39:40.396Z,100682.30
2023-05-12T05:42:07.532Z,100684.55
2023-05-12T05:44:35.224Z,100687.55
2023-05-12T05:47:03.345Z,100684.14
2023-05-12T05:49:31.261Z,100686.48
2023-05-12T05:51:59.837Z,100686.27
2023-05-12T05:54:27.543Z,100694.11
2023-05-12T05:56:54.736Z,100685.63
2023-05-12T05:59:21.752Z,100687.02
2023-05-12T06:01:48.677Z,100687.24
2023-05-12T06:04:15.893Z,100686.98
2023-05-12T06:06:43.008Z,100686.41
2023-05-12T06:09:12.487Z,100686.48
2023-05-12T06:11:39.650Z,100681.95
2023-05-12T06:14:06.600Z,100684.70
2023-05-12T06:16:33.652Z,100680.20
2023-05-12T06:19:00.658Z,100678.53
2023-05-12T06:21:27.743Z,100678.13
2023-05-12T06:23:56.259Z,100673.77
2023-05-12T06:26:23.285Z,100672.79
2023-05-12T06:28:50.470Z,100678.16
2023-05-12T06:31:17.453Z,100676.59
2023-05-12T06:33:44.809Z,100674.46
2023-05-12T06:36:12.963Z,100674.99
2023-05-12T06:38:41.310Z,100677.07
2023-05-12T06:41:08.266Z,100683.45
2023-05-12T06:43:35.125Z,100684.02
2023-05-12T06:46:03.884Z,100687.59
2023-05-12T06:48:31.063Z,100688.92
2023-05-12T06:50:58.064Z,100689.31
2023-05-12T06:53:29.565Z,100692.36
2023-05-12T06:55:56.627Z,100689.70
2023-05-12T06:58:24.163Z,100690.59
2023-05-12T07:00:51.078Z,100692.18
2023-05-12T07:03:17.979Z,100692.10
2023-05-12T07:05:45.765Z,100696.89
2023-05-12T07:08:12.749Z,100690.79
2023-05-12T07:10:40.285Z,100695.56
2023-05-12T07:13:07.355Z,100697.23
2023-05-12T07:15:34.377Z,100696.27
2023-05-12T07:18:01.763Z,100695.36
2023-05-12T07:20:28.799Z,100697.79
2023-05-12T07:22:56.760Z,100697.77
2023-05-12T07:25:23.866Z,100696.27
2023-05-12T07:27:51.046Z,100696.68
2023-05-12T07:30:18.137Z,100696.81
2023-05-12T07:32:45.009Z,100703.59
2023-05-12T07:35:12.656Z,100699.29
2023-05-12T07:37:39.615Z,100696.80
2023-05-12T07:40:07.543Z,100689.86
2023-05-12T07:42:34.411Z,100693.77
2023-05-12T07:45:01.360Z,100689.77
2023-05-12T07:47:28.865Z,100689.20
2023-05-12T07:49:55.885Z,100685.48
2023-05-12T07:52:22.932Z,100687.77
2023-05-12T07:54:49.847Z,100686.41
2023-05-12T07:57:17.036Z,100677.73
2023-05-12T07:59:44.417Z,100680.13
2023-05-12T08:02:11.371Z,100681.34
2023-05-12T08:04:38.434Z,100685.51
2023-05-12T08:07:05.470Z,100685.92
2023-05-12T08:09:32.406Z,100683.95
2023-05-12T08:11:59.459Z,100684.49
2023-05-12T08:14:26.517Z,100677.98
2023-05-12T08:16:53.393Z,100674.16
2023-05-12T08:19:20.410Z,100674.30
2023-05-12T08:21:47.360Z,100671.68
2023-05-12T08:24:14.309Z,100674.57
2023-05-12T08:26:41.162Z,100674.43
2023-05-12T08:29:08.839Z,100665.80
2023-05-12T08:31:37.868Z,100662.07
2023-05-12T08:34:10.378Z,100664.67
2023-05-12T08:36:39.399Z,100661.81
2023-05-12T08:39:06.532Z,100665.09
2023-05-12T08:41:44.811Z,100663.73
2023-05-12T08:44:12.173Z,100660.08
2023-05-12T08:46:39.324Z,100655.77
2023-05-12T08:49:06.540Z,100657.23
2023-05-12T08:51:33.485Z,100658.36
2023-05-12T08:54:00.438Z,100658.98
2023-05-12T08:58:57.614Z,100652.38
2023-05-12T09:01:24.530Z,100652.08
2023-05-12T09:03:53.209Z,100650.08
2023-05-12T09:06:20.723Z,100647.84
2023-05-12T09:08:47.717Z,100647.24
2023-05-12T09:11:14.656Z,100648.70
2023-05-12T09:14:06.536Z,100650.25
2023-05-12T09:16:34.460Z,100649.25
2023-05-12T09:19:02.787Z,100646.41
2023-05-12T09:21:31.084Z,100642.02
2023-05-12T09:24:09.138Z,100641.66
2023-05-12T09:26:49.899Z,100641.94
2023-05-12T09:29:27.892Z,100636.26
2023-05-12T09:31:58.808Z,100635.14
2023-05-12T09:34:30.705Z,100633.73
2023-05-12T09:37:02.037Z,100631.80
2023-05-12T09:39:29.224Z,100631.35
2023-05-12T09:41:56.222Z,100634.83
2023-05-12T09:44:23.727Z,100628.60
2023-05-12T09:46:51.548Z,100626.11
2023-05-12T09:49:20.435Z,100629.64
2023-05-12T09:51:47.594Z,100631.00
2023-05-12T09:54:28.513Z,100622.96
2023-05-12T09:56:59.582Z,100615.48
2023-05-12T09:59:36.510Z,100619.47
2023-05-12T10:02:06.086Z,100614.88
2023-05-12T10:04:40.425Z,100613.58
2023-05-12T10:07:12.069Z,100613.89
2023-05-12T10:09:42.117Z,100611.77
2023-05-12T10:12:09.512Z,100602.98
2023-05-12T10:14:36.366Z,100596.69
2023-05-12T10:17:03.321Z,100594.54
2023-05-12T10:19:30.580Z,100594.75
2023-05-12T10:21:57.874Z,100597.27
2023-05-12T10:24:26.901Z,100598.02
2023-05-12T10:26:57.785Z,100594.80
2023-05-12T10:29:33.006Z,100595.88
2023-05-12T10:32:01.340Z,100597.35
2023-05-12T10:34:34.099Z,100595.67
2023-05-12T10:37:01.468Z,100596.27
2023-05-12T10:39:29.898Z,100595.23
2023-05-12T10:42:07.581Z,100592.09
2023-05-12T10:44:36.295Z,100590.77
2023-05-12T10:47:03.329Z,100593.93
2023-05-12T10:49:39.616Z,100590.52
2023-05-12T10:52:07.503Z,100590.63
2023-05-12T10:54:44.474Z,100590.81
2023-05-12T10:57:18.884Z,100588.16
2023-05-12T10:59:50.772Z,100585.73
2023-05-12T11:02:20.780Z,100584.65
2023-05-12T11:04:54.091Z,100582.02
2023-05-12T11:07:24.436Z,100581.58
2023-05-12T11:09:58.432Z,100578.80
2023-05-12T11:12:27.711Z,100573.48
2023-05-12T11:14:54.827Z,100569.17
2023-05-12T11:17:21.939Z,100569.55
2023-05-12T11:19:50.569Z,100569.70
2023-05-12T11:22:20.178Z,100570.20
2023-05-12T11:24:47.377Z,100569.10
2023-05-12T11:27:18.523Z,100573.86
2023-05-12T11:29:47.275Z,100566.47
2023-05-12T11:32:15.859Z,100567.38
2023-05-12T11:34:42.751Z,100570.35
2023-05-12T11:37:09.746Z,100571.31
2023-05-12T11:39:36.692Z,100570.05
2023-05-12T11:42:12.068Z,100572.86
2023-05-12T11:44:47.024Z,100570.41
2023-05-12T11:47:14.633Z,100565.52
2023-05-12T11:49:51.509Z,100567.66
2023-05-12T11:52:20.728Z,100566.45
2023-05-12T11:55:00.305Z,100566.63
2023-05-12T11:57:31.946Z,100567.96
2023-05-12T12:00:06.952Z,100567.98
2023-05-12T12:02:34.702Z,100569.37
2023-05-12T12:05:01.759Z,100563.47
2023-05-12T12:07:38.149Z,100555.94
2023-05-12T12:10:13.101Z,100550.96
2023-05-12T12:12:41.119Z,100546.34
2023-05-12T12:15:09.270Z,100547.34
2023-05-12T12:17:36.255Z,100546.66
2023-05-12T12:20:03.644Z,100544.57
2023-05-12T12:22:34.351Z,100544.53
2023-05-12T12:25:02.350Z,100539.17
2023-05-12T12:27:29.314Z,100535.71
2023-05-12T12:29:56.250Z,100541.21
2023-05-12T12:32:23.193Z,100541.05
2023-05-12T12:34:50.149Z,100544.42
2023-05-12T12:37:17.399Z,100545.93
2023-05-12T12:39:44.561Z,100542.63
2023-05-12T12:42:11.503Z,100541.36
2023-05-12T12:44:38.462Z,100546.74
2023-05-12T12:47:05.563Z,100542.36
2023-05-12T12:49:32.568Z,100546.54
2023-05-12T12:51:59.527Z,100539.80
2023-05-12T12:54:29.601Z,100538.95
2023-05-12T12:56:57.005Z,100537.27
2023-05-12T12:59:24.087Z,100533.85
2023-05-12T13:01:51.007Z,100534.98
2023-05-12T13:04:22.374Z,100529.67
2023-05-12T13:06:49.507Z,100531.18
2023-05-12T13:09:19.761Z,100536.61
2023-05-12T13:11:47.918Z,100533.69
2023-05-12T13:14:16.154Z,100530.90
2023-05-12T13:16:43.564Z,100527.23
2023-05-12T13:19:10.634Z,100529.02
2023-05-12T13:21:37.991Z,100527.39
2023-05-12T13:24:04.958Z,100530.04
2023-05-12T13:26:32.170Z,100528.85
2023-05-12T13:28:59.024Z,100523.84
2023-05-12T13:31:26.137Z,100524.89
2023-05-12T13:33:53.227Z,100525.99
2023-05-12T13:36:20.080Z,100527.83
2023-05-12T13:38:47.049Z,100527.90
2023-05-12T13:41:13.975Z,100528.60
2023-05-12T13:43:40.862Z,100529.77
2023-05-12T13:46:08.521Z,100527.47
2023-05-12T13:48:35.951Z,100528.20
2023-05-12T13:51:02.798Z,100533.80
2023-05-12T13:53:29.759Z,100530.41
2023-05-12T13:55:56.702Z,100533.09
2023-05-12T13:58:23.847Z,100528.09
2023-05-12T14:00:50.702Z,100528.02
2023-05-12T14:03:18.182Z,100529.36
2023-05-12T14:05:45.218Z,100529.06
2023-05-12T14:08:12.383Z,100525.73
2023-05-12T14:10:39.198Z,100524.17
2023-05-12T14:13:08.400Z,100523.14
2023-05-12T14:15:47.954Z,100521.13
2023-05-12T14:18:15.336Z,100520.77
2023-05-12T14:20:42.287Z,100523.21
2023-05-12T14:23:09.121Z,100519.08
2023-05-12T14:25:35.960Z,100520.05
2023-05-12T14:28:03.662Z,100519.95
2023-05-12T14:30:31.046Z,100521.08
2023-05-12T14:32:58.360Z,100517.53
2023-05-12T14:35:27.913Z,100518.54
2023-05-12T14:37:55.775Z,100515.69
2023-05-12T14:40:23.529Z,100517.89
2023-05-12T14:42:50.658Z,100517.06
2023-05-12T14:45:17.893Z,100518.84
2023-05-12T14:47:45.174Z,100523.23
2023-05-12T14:50:12.394Z,100518.62
2023-05-12T14:52:39.519Z,100518.24
2023-05-12T14:55:11.720Z,100516.90
2023-05-12T14:57:39.532Z,100516.41
2023-05-12T15:00:10.944Z,100516.76
2023-05-12T15:02:38.984Z,100513.38
2023-05-12T15:05:07.629Z,100515.54
2023-05-12T15:07:34.710Z,100514.02
2023-05-12T15:10:01.571Z,100512.03
2023-05-12T15:12:28.507Z,100514.25
2023-05-12T15:14:56.464Z,100517.30
2023-05-12T15:17:23.871Z,100517.90
2023-05-12T15:19:51.245Z,100517.95
2023-05-12T15:22:18.154Z,100519.27
2023-05-12T15:24:45.094Z,100513.95
2023-05-12T15:27:12.220Z,100510.42
2023-05-12T15:29:40.136Z,100511.48
2023-05-12T15:32:07.806Z,100513.79
2023-05-12T15:34:35.364Z,100510.88
2023-05-12T15:37:02.415Z,100507.77
2023-05-12T15:39:29.418Z,100508.70
2023-05-12T15:41:56.613Z,100508.82
2023-05-12T15:44:23.420Z,100508.11
2023-05-12T15:46:50.406Z,100507.77
2023-05-12T15:49:17.499Z,100512.05
2023-05-12T15:51:44.829Z,100519.02
2023-05-12T15:54:12.698Z,100527.77
2023-05-12T15:56:39.772Z,100527.86
2023-05-12T15:59:07.684Z,100526.23
2023-05-12T16:01:34.816Z,100525.08
2023-05-12T16:04:01.800Z,100519.36
2023-05-12T16:06:28.866Z,100518.89
2023-05-12T16:08:55.941Z,100519.35
2023-05-12T16:11:22.746Z,100521.33
2023-05-12T16:13:52.521Z,100523.58
2023-05-12T16:16:19.612Z,100522.54
2023-05-12T16:18:46.730Z,100522.98
2023-05-12T16:21:13.865Z,100525.98
2023-05-12T16:23:40.820Z,100527.00
2023-05-12T16:26:07.768Z,100527.72
2023-05-12T16:28:34.721Z,100529.00
2023-05-12T16:31:04.866Z,100532.17
2023-05-12T16:33:31.789Z,100533.20
2023-05-12T16:35:58.636Z,100530.34
2023-05-12T16:38:25.552Z,100532.24
2023-05-12T16:40:52.389Z,100530.39
2023-05-12T16:43:19.307Z,100535.95
2023-05-12T16:45:46.464Z,100538.02
2023-05-12T16:48:13.490Z,100543.66
2023-05-12T16:50:40.347Z,100545.20
2023-05-12T16:53:07.212Z,100544.11
2023-05-12T16:55:34.134Z,100544.85
2023-05-12T16:58:01.827Z,100546.09
2023-05-12T17:00:28.957Z,100544.48
2023-05-12T17:02:55.944Z,100548.33
2023-05-12T17:05:23.333Z,100551.13
2023-05-12T17:07:51.144Z,100556.40
2023-05-12T17:10:18.093Z,100558.57
2023-05-12T17:12:44.942Z,100556.39
2023-05-12T17:15:12.032Z,100559.97
2023-05-12T17:17:39.569Z,100561.02
2023-05-12T17:20:07.746Z,100567.05
2023-05-12T17:22:37.318Z,100574.69
2023-05-12T17:25:04.949Z,100578.66
2023-05-12T17:27:31.865Z,100578.40
2023-05-12T17:29:59.937Z,100576.91
2023-05-12T17:32:27.201Z,100579.29
2023-05-12T17:34:54.102Z,100580.80
2023-05-12T17:37:20.975Z,100583.56
2023-05-12T17:39:48.017Z,100581.81
2023-05-12T17:42:14.838Z,100585.98
2023-05-12T17:44:41.859Z,100589.58
2023-05-12T17:47:08.987Z,100590.53
2023-05-12T17:49:36.371Z,100592.26
2023-05-12T17:52:03.878Z,100591.10
2023-05-12T17:54:30.794Z,100594.73
2023-05-12T17:56:58.050Z,100600.34
2023-05-12T17:59:25.190Z,100598.05
2023-05-12T18:01:52.101Z,100598.96
2023-05-12T18:04:19.422Z,100598.27
2023-05-12T18:06:50.544Z,100604.39
2023-05-12T18:09:17.904Z,100609.36
2023-05-12T18:11:45.060Z,100606.83
2023-05-12T18:14:11.925Z,100607.33
2023-05-12T18:16:39.089Z,100608.33
2023-05-12T18:19:05.977Z,100609.98
2023-05-12T18:21:32.886Z,100612.95
2023-05-12T18:23:59.721Z,100609.92
2023-05-12T18:26:27.619Z,100611.40
2023-05-12T18:28:54.497Z,100611.55
2023-05-12T18:31:21.521Z,100615.17
2023-05-12T18:33:49.458Z,100619.46
2023-05-12T18:36:16.710Z,100621.91
2023-05-12T18:38:43.777Z,100621.84
2023-05-12T18:41:10.816Z,100621.70
2023-05-12T18:43:37.877Z,100624.86
2023-05-12T18:46:04.878Z,100621.04
2023-05-12T18:48:31.874Z,100622.27
2023-05-12T18:50:58.750Z,100622.36
2023-05-12T18:53:25.774Z,100623.88
2023-05-12T18:55:52.695Z,100622.73
2023-05-12T18:58:19.575Z,100624.19
2023-05-12T19:00:47.053Z,100625.73
2023-05-12T19:03:13.923Z,100624.19
2023-05-12T19:05:46.458Z,100619.23
2023-05-12T19:08:13.825Z,100617.64
2023-05-12T19:10:40.789Z,100615.48
2023-05-12T19:13:08.280Z,100612.77
2023-05-12T19:15:35.845Z,100611.38
2023-05-12T19:18:02.832Z,100606.96
2023-05-12T19:20:30.754Z,100605.34
2023-05-12T19:22:59.784Z,100599.80
2023-05-12T19:25:26.689Z,100600.93
2023-05-12T19:27:53.557Z,100599.70
2023-05-12T19:30:20.575Z,100596.98
2023-05-12T19:32:47.908Z,100592.48
2023-05-12T19:35:15.006Z,100597.73
2023-05-12T19:37:42.040Z,100595.41
2023-05-12T19:40:09.539Z,100588.59
2023-05-12T19:42:38.131Z,100591.11
2023-05-12T19:45:05.773Z,100592.22
2023-05-12T19:47:33.565Z,100588.30
2023-05-12T19:50:00.892Z,100586.79
2023-05-12T19:52:30.810Z,100584.65
2023-05-12T19:54:57.860Z,100583.36
2023-05-12T19:57:24.847Z,100584.20
2023-05-12T19:59:51.968Z,100588.07
2023-05-12T20:02:18.858Z,100588.88
2023-05-12T20:04:45.828Z,100586.55
2023-05-12T20:07:13.230Z,100584.19
2023-05-12T20:09:40.299Z,100588.16
2023-05-12T20:12:08.099Z,100587.70
2023-05-12T20:14:35.859Z,100586.84
2023-05-12T20:17:07.508Z,100590.10
2023-05-12T20:19:34.944Z,100592.13
2023-05-12T20:22:01.905Z,100593.18
2023-05-12T20:24:28.859Z,100591.98
2023-05-12T20:26:56.323Z,100591.73
2023-05-12T20:29:26.056Z,100594.72
2023-05-12T20:31:53.020Z,100599.13
2023-05-12T20:34:20.028Z,100596.98
2023-05-12T20:36:47.168Z,100597.74
2023-05-12T20:39:15.272Z,100595.36
2023-05-12T20:41:43.032Z,100597.75
2023-05-12T20:44:09.917Z,100597.63
2023-05-12T20:46:38.441Z,100601.61
2023-05-12T20:49:05.944Z,100603.14
2023-05-12T20:51:32.844Z,100603.11
2023-05-12T20:53:59.721Z,100603.23
2023-05-12T20:56:27.158Z,100602.84
2023-05-12T20:58:54.261Z,100600.42
2023-05-12T21:01:21.438Z,100601.21
2023-05-12T21:03:48.433Z,100603.26
2023-05-12T21:06:15.694Z,100602.52
2023-05-12T21:08:42.858Z,100600.58
2023-05-12T21:11:14.934Z,100601.66
2023-05-12T21:13:42.380Z,100603.77
2023-05-12T21:16:09.372Z,100611.14
2023-05-12T21:18:36.406Z,100608.84
2023-05-12T21:21:04.305Z,100612.98
2023-05-12T21:23:31.308Z,100614.29
2023-05-12T21:25:58.164Z,100610.00
2023-05-12T21:28:24.996Z,100608.77
2023-05-12T21:30:51.954Z,100613.20
2023-05-12T21:33:18.902Z,100614.36
2023-05-12T21:35:45.742Z,100612.14
2023-05-12T21:38:12.744Z,100611.86
2023-05-12T21:40:39.760Z,100613.71
2023-05-12T21:43:06.671Z,100613.80
2023-05-12T21:45:33.552Z,100612.38
2023-05-12T21:48:00.451Z,100611.54
2023-05-12T21:50:27.456Z,100608.87
2023-05-12T21:52:54.417Z,100612.27
2023-05-12T21:55:21.566Z,100610.84
2023-05-12T21:57:48.457Z,100611.09
2023-05-12T22:00:19.040Z,100608.59
2023-05-12T22:02:47.935Z,100609.45
2023-05-12T22:05:15.199Z,100612.54
2023-05-12T22:07:42.131Z,100612.37
2023-05-12T22:10:09.920Z,100618.34
2023-05-12T22:12:37.792Z,100618.04
2023-05-12T22:15:05.254Z,100619.44
2023-05-12T22:17:32.119Z,100618.90
2023-05-12T22:19:59.565Z,100620.70
2023-05-12T22:22:26.485Z,100621.46
2023-05-12T22:24:53.298Z,100621.33
2023-05-12T22:27:22.573Z,100620.08
2023-05-12T22:29:49.966Z,100618.77
2023-05-12T22:32:16.951Z,100618.70
2023-05-12T22:34:43.954Z,100616.08
2023-05-12T22:37:10.798Z,100614.73
2023-05-12T22:39:37.724Z,100615.66
2023-05-12T22:42:05.804Z,100613.45
2023-05-12T22:44:32.653Z,100614.39
2023-05-12T22:46:59.661Z,100614.91
2023-05-12T22:49:26.655Z,100617.34
2023-05-12T22:51:53.529Z,100617.17
2023-05-12T22:54:20.370Z,100618.85
2023-05-12T22:56:47.267Z,100616.63
2023-05-12T22:59:14.257Z,100616.15
2023-05-12T23:01:41.127Z,100612.02
2023-05-12T23:04:08.078Z,100615.02
2023-05-12T23:06:35.007Z,100615.09
2023-05-12T23:09:01.887Z,100615.52
2023-05-12T23:16:49.296Z,100617.50
2023-05-12T23:19:16.342Z,100616.48
2023-05-12T23:21:43.235Z,100615.81
2023-05-12T23:24:10.165Z,100615.86
2023-05-12T23:26:36.999Z,100615.55
2023-05-12T23:29:04.379Z,100612.05
2023-05-12T23:31:31.474Z,100612.23
2023-05-12T23:33:58.303Z,100614.16
2023-05-12T23:36:25.340Z,100611.67
2023-05-12T23:38:54.672Z,100610.35
2023-05-12T23:41:22.224Z,100612.34
2023-05-12T23:43:49.079Z,100609.06
2023-05-12T23:46:16.006Z,100608.58
2023-05-12T23:48:43.163Z,100607.80
2023-05-12T23:51:10.028Z,100610.40
2023-05-12T23:53:36.839Z,100613.77
2023-05-12T23:56:03.758Z,100610.06
2023-05-12T23:58:30.685Z,100611.55
